Terminal Aerodrome Forecast
Issued by NWS

Home | Current Version | Previous Version | Graphics & Text | Print | Product List | Glossary On
Versions: 1 2 3 4 5 6 7 8 9 10 11 12 13 14 15 16 17 18 19 20 21 22 23 24
000
FTUS43 KBIS 252300
TAFJMS
TAF
KJMS 252320Z 2600/2624 32017G25KT P6SM BKN045
     FM260200 32010KT P6SM BKN035
     FM260600 32006KT P6SM SCT035
     FM261400 02006KT P6SM BKN030
     FM262000 02010KT P6SM SCT050=

USA.gov is the U.S. government's official web portal to all federal, state and local government web resources and services.